createdAt,value
2019-05-06T00:02:24.871Z,1.90
2019-05-06T00:04:54.449Z,1.33
2019-05-06T00:07:24.353Z,1.53
2019-05-06T00:09:54.030Z,1.33
2019-05-06T00:12:23.998Z,1.30
2019-05-06T00:14:54.201Z,3.63
2019-05-06T00:17:24.037Z,2.20
2019-05-06T00:19:54.045Z,2.23
2019-05-06T00:22:24.963Z,1.50
2019-05-06T00:25:00.785Z,2.63
2019-05-06T00:27:40.345Z,2.03
2019-05-06T00:30:09.890Z,2.40
2019-05-06T00:32:39.619Z,2.03
2019-05-06T00:35:09.175Z,2.00
2019-05-06T00:37:38.793Z,1.63
2019-05-06T00:40:28.733Z,5.07
2019-05-06T00:43:06.245Z,1.83
2019-05-06T00:45:35.905Z,1.90
2019-05-06T00:48:05.435Z,2.07
2019-05-06T00:50:35.007Z,2.13
2019-05-06T00:53:06.238Z,1.60
2019-05-06T00:55:35.803Z,2.10
2019-05-06T00:58:05.364Z,2.47
2019-05-06T01:00:38.134Z,1.47
2019-05-06T01:03:08.025Z,2.00
2019-05-06T01:05:37.581Z,1.67
2019-05-06T01:08:07.157Z,3.07
2019-05-06T01:10:36.796Z,2.50
2019-05-06T01:13:40.779Z,2.70
2019-05-06T01:16:12.019Z,2.93
2019-05-06T01:18:43.478Z,2.53
2019-05-06T01:21:14.586Z,2.70
2019-05-06T01:23:44.709Z,2.20
2019-05-06T01:26:15.326Z,2.57
2019-05-06T01:28:45.379Z,3.20
2019-05-06T01:31:15.133Z,1.50
2019-05-06T01:33:45.412Z,2.00
2019-05-06T01:36:15.167Z,2.13
2019-05-06T01:38:55.058Z,1.80
2019-05-06T01:41:49.471Z,1.60
2019-05-06T01:44:19.218Z,2.40
2019-05-06T01:46:48.761Z,2.43
2019-05-06T01:49:18.335Z,1.40
2019-05-06T01:51:47.935Z,1.70
2019-05-06T01:54:17.508Z,2.50
2019-05-06T01:56:47.077Z,3.20
2019-05-06T01:59:16.620Z,2.00
2019-05-06T02:01:57.445Z,1.90
2019-05-06T02:04:17.437Z,1.80
2019-05-06T02:06:47.005Z,1.73
2019-05-06T02:09:16.688Z,1.60
2019-05-06T02:11:48.016Z,2.07
2019-05-06T02:14:18.436Z,1.93
2019-05-06T02:16:47.970Z,2.30
2019-05-06T02:19:17.552Z,1.63
2019-05-06T02:22:18.159Z,1.73
2019-05-06T02:24:53.535Z,1.60
2019-05-06T02:27:24.741Z,1.37
2019-05-06T02:30:15.094Z,2.17
2019-05-06T02:32:58.376Z,1.40
2019-05-06T02:35:35.979Z,2.07
2019-05-06T02:38:07.271Z,2.30
2019-05-06T02:40:36.865Z,1.80
2019-05-06T02:43:06.408Z,1.57
2019-05-06T02:45:35.977Z,1.90
2019-05-06T02:48:13.960Z,3.00
2019-05-06T02:51:03.750Z,1.87
2019-05-06T02:53:33.563Z,2.97
2019-05-06T02:56:04.537Z,4.90
2019-05-06T02:58:34.576Z,3.37
2019-05-06T03:01:04.231Z,36.90
2019-05-06T03:03:34.128Z,46.67
2019-05-06T03:06:04.495Z,46.30
2019-05-06T03:08:34.503Z,34.00
2019-05-06T03:11:04.564Z,46.43
2019-05-06T03:13:34.477Z,41.77
2019-05-06T03:16:06.001Z,45.73
2019-05-06T03:18:35.379Z,35.47
2019-05-06T03:21:24.470Z,42.70
2019-05-06T03:24:07.517Z,29.67
2019-05-06T03:26:35.615Z,29.87
2019-05-06T03:29:05.193Z,34.97
2019-05-06T03:31:36.387Z,29.00
2019-05-06T03:34:35.456Z,32.83
2019-05-06T03:36:41.200Z,27.27
2019-05-06T03:39:10.107Z,29.10
2019-05-06T03:41:39.688Z,28.27
2019-05-06T03:44:09.691Z,27.97
2019-05-06T03:47:05.779Z,26.33
2019-05-06T03:49:38.231Z,23.97
2019-05-06T03:52:08.228Z,24.00
2019-05-06T03:54:38.337Z,21.80
2019-05-06T03:57:07.900Z,17.20
2019-05-06T03:59:38.609Z,19.50
2019-05-06T04:02:09.322Z,22.73
2019-05-06T04:04:38.895Z,23.60
2019-05-06T04:07:08.539Z,17.07
2019-05-06T04:09:38.158Z,22.37
2019-05-06T04:12:07.719Z,22.53
2019-05-06T04:14:37.191Z,16.07
2019-05-06T04:17:13.201Z,19.03
2019-05-06T04:19:46.631Z,24.07
2019-05-06T04:22:25.120Z,16.30
2019-05-06T04:25:19.305Z,18.17
2019-05-06T04:27:53.713Z,19.20
2019-05-06T04:30:24.257Z,14.20
2019-05-06T04:32:54.080Z,18.77
2019-05-06T04:35:23.651Z,19.23
2019-05-06T04:37:54.008Z,18.50
2019-05-06T04:40:24.179Z,18.00
2019-05-06T04:42:53.733Z,19.60
2019-05-06T04:45:23.870Z,23.23
2019-05-06T04:47:54.081Z,17.73
2019-05-06T04:50:24.302Z,15.83
2019-05-06T04:53:04.595Z,13.73
2019-05-06T04:55:35.066Z,15.53
2019-05-06T04:58:05.157Z,17.83
2019-05-06T05:00:35.126Z,16.40
2019-05-06T05:03:05.180Z,16.47
2019-05-06T05:05:34.881Z,15.13
2019-05-06T05:08:04.715Z,15.87
2019-05-06T05:10:43.664Z,13.13
2019-05-06T05:13:25.720Z,11.63
2019-05-06T05:16:04.421Z,14.43
2019-05-06T05:18:42.505Z,12.90
2019-05-06T05:21:12.071Z,12.90
2019-05-06T05:23:42.865Z,14.30
2019-05-06T05:26:12.494Z,16.50
2019-05-06T05:28:42.928Z,12.60
2019-05-06T05:31:12.529Z,9.50
2019-05-06T05:33:42.414Z,13.40
2019-05-06T05:36:12.378Z,8.73
2019-05-06T05:38:42.945Z,10.83
2019-05-06T05:41:12.751Z,8.67
2019-05-06T05:43:53.607Z,15.37
2019-05-06T05:46:23.190Z,11.77
2019-05-06T05:49:26.917Z,10.67
2019-05-06T05:51:56.522Z,11.13
2019-05-06T05:54:26.486Z,12.27
2019-05-06T05:56:56.816Z,9.90
2019-05-06T05:59:26.364Z,10.67
2019-05-06T06:01:55.923Z,9.73
2019-05-06T06:04:25.466Z,8.17
2019-05-06T06:06:55.092Z,8.50
2019-05-06T06:09:28.190Z,6.13
2019-05-06T06:11:59.449Z,10.53
2019-05-06T06:14:56.025Z,10.30
2019-05-06T06:17:52.341Z,9.43
2019-05-06T06:20:39.873Z,8.40
2019-05-06T06:23:15.392Z,7.00
2019-05-06T06:25:45.197Z,8.60
2019-05-06T06:28:14.771Z,11.27
2019-05-06T06:30:52.063Z,5.70
2019-05-06T06:33:22.316Z,7.30
2019-05-06T06:36:02.873Z,10.27
2019-05-06T06:38:52.577Z,10.53
2019-05-06T06:41:22.813Z,7.40
2019-05-06T06:43:56.195Z,6.87
2019-05-06T06:46:25.806Z,7.00
2019-05-06T06:48:55.823Z,6.93
2019-05-06T06:51:25.493Z,7.80
2019-05-06T06:53:55.226Z,5.07
2019-05-06T06:56:43.791Z,4.93
2019-05-06T06:59:22.078Z,6.87
2019-05-06T07:02:02.730Z,6.73
2019-05-06T07:04:37.211Z,5.47
2019-05-06T07:07:06.885Z,6.40
2019-05-06T07:09:36.476Z,5.27
2019-05-06T07:12:06.135Z,6.43
2019-05-06T07:14:36.367Z,4.63
2019-05-06T07:17:06.057Z,6.20
2019-05-06T07:19:42.263Z,6.07
2019-05-06T07:22:12.741Z,4.57
2019-05-06T07:24:43.087Z,4.87
2019-05-06T07:27:18.662Z,7.77
2019-05-06T07:29:48.895Z,6.37
2019-05-06T07:32:18.724Z,6.40
2019-05-06T07:34:48.299Z,5.40
2019-05-06T07:37:17.930Z,6.33
2019-05-06T07:39:47.480Z,5.63
2019-05-06T07:42:22.886Z,4.63
2019-05-06T07:45:12.481Z,5.30
2019-05-06T07:47:49.802Z,5.80
2019-05-06T07:50:19.383Z,4.07
2019-05-06T07:53:07.852Z,5.00
2019-05-06T07:55:38.211Z,5.27
2019-05-06T07:58:07.975Z,3.17
2019-05-06T08:00:37.772Z,5.77
2019-05-06T08:03:07.349Z,4.60
2019-05-06T08:05:36.882Z,4.93
2019-05-06T08:08:06.431Z,5.80
2019-05-06T08:10:35.999Z,6.07
2019-05-06T08:13:05.562Z,3.83
2019-05-06T08:15:35.272Z,3.97
2019-05-06T08:18:04.913Z,5.00
2019-05-06T08:20:37.568Z,4.17
2019-05-06T08:23:29.415Z,4.27
2019-05-06T08:26:11.685Z,5.07
2019-05-06T08:28:38.642Z,5.30
2019-05-06T08:31:02.356Z,5.63
2019-05-06T08:33:32.759Z,5.07
2019-05-06T08:36:11.336Z,4.37
2019-05-06T08:38:53.327Z,3.40
2019-05-06T08:41:22.877Z,2.90
2019-05-06T08:43:52.969Z,3.67
2019-05-06T08:46:23.538Z,3.80
2019-05-06T08:48:53.312Z,3.53
2019-05-06T08:51:47.992Z,5.30
2019-05-06T08:54:26.850Z,4.30
2019-05-06T08:56:57.102Z,5.07
2019-05-06T08:59:26.669Z,4.33
2019-05-06T09:01:57.645Z,3.40
2019-05-06T09:04:27.555Z,2.90
2019-05-06T09:06:57.231Z,4.00
2019-05-06T09:09:27.052Z,3.57
2019-05-06T09:11:56.700Z,5.40
2019-05-06T09:14:26.272Z,4.93
2019-05-06T09:16:55.828Z,5.00
2019-05-06T09:19:28.513Z,4.53
2019-05-06T09:21:58.069Z,3.50
2019-05-06T09:24:27.927Z,3.23
2019-05-06T09:27:16.493Z,3.70
2019-05-06T09:29:52.409Z,3.47
2019-05-06T09:32:47.393Z,3.70
2019-05-06T09:35:17.199Z,3.93
2019-05-06T09:37:46.813Z,3.50
2019-05-06T09:40:16.399Z,3.20
2019-05-06T09:42:45.968Z,3.07
2019-05-06T09:45:15.560Z,3.10
2019-05-06T09:48:12.614Z,3.07
2019-05-06T09:50:46.089Z,2.93
2019-05-06T09:53:19.688Z,3.70
2019-05-06T09:56:07.420Z,3.90
2019-05-06T09:58:42.623Z,4.37
2019-05-06T10:01:13.105Z,3.93
2019-05-06T10:03:42.951Z,4.10
2019-05-06T10:06:13.121Z,3.17
2019-05-06T10:08:42.756Z,4.17
2019-05-06T10:11:12.362Z,4.23
2019-05-06T10:13:43.072Z,3.63
2019-05-06T10:16:13.070Z,4.37
2019-05-06T10:18:42.711Z,2.80
2019-05-06T10:21:12.581Z,3.67
2019-05-06T10:23:42.485Z,4.33
2019-05-06T10:26:12.926Z,3.70
2019-05-06T10:29:07.826Z,3.33
2019-05-06T10:31:43.184Z,3.43
2019-05-06T10:34:14.211Z,2.90
2019-05-06T10:36:53.316Z,3.53
2019-05-06T10:39:23.742Z,3.93
2019-05-06T10:41:57.782Z,3.73
2019-05-06T10:44:36.873Z,3.80
2019-05-06T10:47:06.696Z,3.53
2019-05-06T10:49:36.277Z,2.73
2019-05-06T10:52:15.266Z,5.87
2019-05-06T10:54:44.798Z,3.93
2019-05-06T10:57:33.343Z,3.77
2019-05-06T11:00:02.929Z,4.67
2019-05-06T11:02:57.573Z,4.47
2019-05-06T11:05:27.207Z,3.30
2019-05-06T11:07:56.773Z,2.80
2019-05-06T11:10:32.137Z,3.13
2019-05-06T11:12:57.992Z,4.33
2019-05-06T11:15:27.651Z,5.40
2019-05-06T11:17:57.242Z,3.40
2019-05-06T11:20:26.837Z,4.00
2019-05-06T11:22:56.404Z,3.40
2019-05-06T11:25:25.981Z,5.33
2019-05-06T11:27:55.861Z,5.73
2019-05-06T11:30:43.464Z,3.67
2019-05-06T11:33:42.551Z,3.37
2019-05-06T11:36:26.146Z,3.17
2019-05-06T11:38:55.706Z,3.70
2019-05-06T11:41:25.268Z,3.97
2019-05-06T11:43:54.825Z,3.03
2019-05-06T11:46:24.370Z,3.43
2019-05-06T11:48:53.917Z,3.57
2019-05-06T11:51:25.213Z,3.13
2019-05-06T11:53:54.775Z,3.33
2019-05-06T11:56:24.334Z,3.97
2019-05-06T11:58:55.087Z,2.50
2019-05-06T12:01:27.798Z,4.23
2019-05-06T12:03:57.706Z,2.83
2019-05-06T12:06:27.787Z,3.30
2019-05-06T12:08:57.388Z,3.27
2019-05-06T12:11:27.040Z,3.93
2019-05-06T12:13:56.585Z,4.10
2019-05-06T12:16:26.554Z,3.30
2019-05-06T12:18:59.782Z,4.87
2019-05-06T12:21:28.406Z,2.70
2019-05-06T12:23:57.948Z,3.37
2019-05-06T12:26:27.815Z,2.70
2019-05-06T12:28:57.382Z,3.83
2019-05-06T12:31:27.006Z,4.43
2019-05-06T12:33:56.612Z,3.67
2019-05-06T12:36:26.242Z,2.70
2019-05-06T12:39:16.028Z,3.00
2019-05-06T12:42:12.690Z,2.77
2019-05-06T12:44:48.730Z,5.57
2019-05-06T12:47:37.280Z,2.70
2019-05-06T12:50:07.123Z,3.17
2019-05-06T12:52:36.753Z,3.27
2019-05-06T12:55:18.227Z,3.40
2019-05-06T12:57:37.774Z,2.73
2019-05-06T13:00:07.548Z,3.23
2019-05-06T13:02:37.168Z,2.87
2019-05-06T13:05:06.781Z,4.17
2019-05-06T13:07:46.082Z,3.10
2019-05-06T13:10:18.384Z,3.27
2019-05-06T13:12:54.076Z,4.93
2019-05-06T13:15:24.590Z,4.63
2019-05-06T13:17:54.256Z,2.90
2019-05-06T13:20:24.138Z,2.87
2019-05-06T13:23:21.189Z,3.10
2019-05-06T13:25:47.428Z,3.20
2019-05-06T13:28:18.583Z,3.63
2019-05-06T13:30:48.145Z,2.60
2019-05-06T13:33:49.174Z,4.03
2019-05-06T13:36:18.801Z,4.20
2019-05-06T13:38:48.394Z,5.30
2019-05-06T13:41:18.022Z,3.73
2019-05-06T13:43:59.463Z,3.17
2019-05-06T13:46:33.266Z,5.87
2019-05-06T13:49:25.483Z,5.20
2019-05-06T13:52:03.352Z,3.20
2019-05-06T13:54:30.967Z,3.73
2019-05-06T13:57:02.724Z,5.07
2019-05-06T13:59:34.767Z,4.93
2019-05-06T14:02:10.809Z,3.30
2019-05-06T14:04:44.250Z,3.50
2019-05-06T14:07:13.089Z,3.40
2019-05-06T14:09:43.733Z,3.77
2019-05-06T14:12:13.691Z,3.93
2019-05-06T14:14:43.518Z,2.97
2019-05-06T14:17:13.326Z,5.57
2019-05-06T14:19:43.223Z,3.27
2019-05-06T14:22:12.853Z,3.03
2019-05-06T14:24:47.223Z,3.00
2019-05-06T14:27:18.359Z,5.13
2019-05-06T14:30:05.412Z,3.03
2019-05-06T14:32:34.961Z,3.07
2019-05-06T14:35:04.770Z,2.70
2019-05-06T14:37:34.387Z,3.10
2019-05-06T14:40:05.697Z,2.67
2019-05-06T14:42:36.061Z,2.97
2019-05-06T14:45:05.686Z,2.47
2019-05-06T14:47:37.671Z,2.57
2019-05-06T14:50:07.591Z,2.77
2019-05-06T14:52:37.142Z,2.40
2019-05-06T14:55:18.309Z,3.20
2019-05-06T14:57:47.857Z,3.60
2019-05-06T15:00:19.519Z,3.50
2019-05-06T15:02:49.117Z,2.60
2019-05-06T15:05:18.877Z,4.50
2019-05-06T15:07:48.720Z,3.43
2019-05-06T15:10:22.983Z,4.80
2019-05-06T15:12:49.529Z,2.93
2019-05-06T15:15:19.093Z,3.57
2019-05-06T15:17:48.665Z,3.23
2019-05-06T15:20:18.224Z,3.27
2019-05-06T15:22:48.028Z,3.90
2019-05-06T15:25:17.886Z,4.60
2019-05-06T15:27:47.469Z,2.77
2019-05-06T15:30:23.237Z,4.50
2019-05-06T15:32:53.049Z,3.47
2019-05-06T15:35:41.895Z,2.07
2019-05-06T15:38:16.523Z,14.37
2019-05-06T15:40:46.209Z,11.20
2019-05-06T15:43:16.049Z,8.50
2019-05-06T15:45:45.644Z,15.00
2019-05-06T15:48:15.249Z,7.97
2019-05-06T15:50:45.968Z,7.63
2019-05-06T15:53:15.683Z,13.63
2019-05-06T15:55:45.290Z,11.40
2019-05-06T15:58:15.131Z,7.63
2019-05-06T16:00:44.742Z,8.63
2019-05-06T16:03:14.283Z,9.70
2019-05-06T16:05:43.935Z,11.17
2019-05-06T16:08:13.536Z,7.67
2019-05-06T16:10:52.655Z,9.83
2019-05-06T16:13:14.714Z,7.07
2019-05-06T16:15:44.289Z,7.20
2019-05-06T16:18:13.826Z,6.60
2019-05-06T16:20:43.378Z,7.13
2019-05-06T16:23:28.336Z,9.30
2019-05-06T16:25:57.945Z,7.67
2019-05-06T16:28:27.673Z,9.20
2019-05-06T16:30:57.224Z,7.03
2019-05-06T16:33:26.808Z,7.70
2019-05-06T16:35:56.363Z,9.60
2019-05-06T16:38:25.950Z,5.50
2019-05-06T16:41:09.437Z,8.43
2019-05-06T16:43:28.218Z,7.00
2019-05-06T16:45:58.191Z,9.30
2019-05-06T16:48:28.468Z,5.70
2019-05-06T16:50:58.099Z,5.77
2019-05-06T16:53:30.179Z,7.10
2019-05-06T16:56:04.602Z,4.97
2019-05-06T16:58:37.264Z,6.40
2019-05-06T17:01:07.053Z,4.77
2019-05-06T17:03:45.859Z,6.93
2019-05-06T17:06:27.448Z,5.13
2019-05-06T17:08:57.020Z,5.60
2019-05-06T17:11:30.869Z,6.23
2019-05-06T17:13:58.155Z,6.13
2019-05-06T17:16:27.750Z,5.97
2019-05-06T17:18:57.290Z,3.97
2019-05-06T17:21:26.939Z,7.53
2019-05-06T17:23:56.504Z,5.20
2019-05-06T17:26:26.239Z,6.63
2019-05-06T17:29:13.929Z,7.73
2019-05-06T17:32:16.991Z,6.20
2019-05-06T17:34:49.809Z,6.47
2019-05-06T17:37:37.261Z,8.20
2019-05-06T17:40:11.798Z,8.27
2019-05-06T17:42:42.068Z,6.83
2019-05-06T17:45:28.741Z,6.27
2019-05-06T17:48:07.271Z,6.80
2019-05-06T17:50:36.858Z,6.40
2019-05-06T17:53:06.739Z,5.93
2019-05-06T17:55:36.578Z,7.27
2019-05-06T17:58:06.215Z,7.37
2019-05-06T18:00:35.807Z,5.10
2019-05-06T18:03:05.547Z,6.50
2019-05-06T18:05:35.134Z,10.23
2019-05-06T18:08:04.719Z,9.73
2019-05-06T18:10:34.798Z,9.07
2019-05-06T18:13:07.265Z,10.73
2019-05-06T18:15:35.731Z,9.63
2019-05-06T18:18:05.358Z,12.87
2019-05-06T18:20:34.935Z,7.97
2019-05-06T18:23:05.104Z,9.97
2019-05-06T18:25:34.649Z,9.80
2019-05-06T18:28:04.216Z,11.20
2019-05-06T18:30:37.055Z,7.07
2019-05-06T18:33:05.316Z,9.00
2019-05-06T18:35:35.341Z,11.83
2019-05-06T18:38:04.902Z,8.47
2019-05-06T18:40:34.586Z,10.33
2019-05-06T18:43:04.180Z,10.13
2019-05-06T18:45:34.064Z,7.37
2019-05-06T18:48:03.631Z,7.17
2019-05-06T18:50:33.188Z,7.10
2019-05-06T18:53:02.890Z,9.77
2019-05-06T18:55:33.170Z,7.50
2019-05-06T18:58:03.049Z,10.20
2019-05-06T19:00:32.655Z,8.10
2019-05-06T19:03:02.771Z,9.67
2019-05-06T19:05:35.992Z,8.20
2019-05-06T19:08:13.424Z,6.67
2019-05-06T19:10:43.022Z,8.90
2019-05-06T19:13:12.941Z,9.30
2019-05-06T19:15:42.586Z,6.60
2019-05-06T19:18:12.973Z,9.50
2019-05-06T19:20:42.627Z,5.40
2019-05-06T19:23:13.077Z,7.10
2019-05-06T19:25:42.933Z,8.30
2019-05-06T19:28:14.319Z,9.30
2019-05-06T19:30:44.017Z,4.77
2019-05-06T19:33:13.941Z,7.47
2019-05-06T19:35:43.956Z,5.00
2019-05-06T19:38:13.516Z,5.73
2019-05-06T19:40:43.090Z,4.20
2019-05-06T19:43:12.650Z,5.33
2019-05-06T19:45:42.352Z,5.63
2019-05-06T19:48:13.397Z,6.17
2019-05-06T19:50:43.458Z,6.87
2019-05-06T19:53:13.034Z,4.60
2019-05-06T19:55:46.653Z,5.97
2019-05-06T19:58:13.886Z,4.47
2019-05-06T20:00:44.060Z,3.97
2019-05-06T20:03:13.648Z,3.90
2019-05-06T20:06:02.322Z,3.87
2019-05-06T20:08:53.555Z,5.63
2019-05-06T20:11:33.492Z,5.67
2019-05-06T20:14:03.062Z,4.50
2019-05-06T20:16:32.642Z,3.20
2019-05-06T20:19:02.424Z,5.80
2019-05-06T20:21:32.821Z,4.13
2019-05-06T20:24:02.572Z,4.37
2019-05-06T20:26:32.519Z,4.63
2019-05-06T20:29:02.360Z,6.07
2019-05-06T20:31:32.262Z,4.33
2019-05-06T20:34:02.369Z,3.87
2019-05-06T20:36:33.236Z,4.37
2019-05-06T20:39:03.152Z,3.47
2019-05-06T20:41:32.975Z,2.63
2019-05-06T20:44:02.849Z,4.53
2019-05-06T20:46:32.455Z,3.37
2019-05-06T20:49:02.570Z,6.37
2019-05-06T20:51:32.783Z,3.40
2019-05-06T20:54:02.615Z,2.27
2019-05-06T20:56:32.745Z,4.00
2019-05-06T20:59:02.558Z,2.90
2019-05-06T21:01:32.652Z,3.67
2019-05-06T21:04:02.380Z,3.60
2019-05-06T21:06:32.326Z,3.20
2019-05-06T21:09:02.263Z,3.27
2019-05-06T21:11:32.648Z,3.23
2019-05-06T21:14:02.462Z,3.37
2019-05-06T21:16:32.139Z,3.40
2019-05-06T21:19:03.125Z,6.40
2019-05-06T21:21:32.848Z,6.20
2019-05-06T21:24:02.469Z,7.00
2019-05-06T21:26:32.990Z,5.30
2019-05-06T21:29:03.300Z,3.80
2019-05-06T21:31:32.949Z,2.90
2019-05-06T21:34:02.596Z,4.93
2019-05-06T21:36:32.406Z,6.03
2019-05-06T21:39:02.107Z,6.93
2019-05-06T21:41:32.725Z,5.63
2019-05-06T21:44:02.572Z,4.37
2019-05-06T21:46:32.091Z,3.70
2019-05-06T21:49:01.634Z,2.13
2019-05-06T21:51:32.811Z,3.63
2019-05-06T21:54:02.942Z,2.87
2019-05-06T21:56:32.970Z,4.90
2019-05-06T21:59:02.535Z,2.80
2019-05-06T22:01:33.055Z,6.77
2019-05-06T22:04:03.244Z,2.30
2019-05-06T22:06:33.271Z,2.87
2019-05-06T22:09:03.732Z,5.27
2019-05-06T22:11:33.286Z,4.50
2019-05-06T22:14:02.854Z,2.40
2019-05-06T22:16:32.509Z,2.10
2019-05-06T22:19:02.568Z,2.47
2019-05-06T22:21:32.686Z,2.07
2019-05-06T22:24:04.690Z,3.80
2019-05-06T22:26:34.538Z,1.73
2019-05-06T22:29:04.118Z,2.47
2019-05-06T22:31:33.695Z,2.67
2019-05-06T22:34:03.328Z,2.70
2019-05-06T22:36:32.938Z,4.30
2019-05-06T22:39:02.723Z,2.10
2019-05-06T22:41:32.763Z,2.80
2019-05-06T22:44:13.136Z,1.63
2019-05-06T22:46:33.917Z,2.10
2019-05-06T22:49:03.471Z,3.83
2019-05-06T22:51:33.058Z,3.23
2019-05-06T22:54:02.884Z,1.67
2019-05-06T22:56:32.852Z,3.57
2019-05-06T22:59:03.193Z,2.00
2019-05-06T23:01:55.534Z,2.17
2019-05-06T23:04:26.707Z,2.57
2019-05-06T23:06:56.252Z,2.33
2019-05-06T23:09:25.837Z,1.63
2019-05-06T23:11:55.392Z,1.90
2019-05-06T23:14:31.374Z,1.97
2019-05-06T23:16:56.238Z,2.83
2019-05-06T23:19:25.775Z,2.20
2019-05-06T23:21:55.377Z,2.80
2019-05-06T23:24:24.981Z,1.70
2019-05-06T23:26:54.924Z,2.33
2019-05-06T23:29:24.757Z,3.57
2019-05-06T23:31:54.284Z,2.80
2019-05-06T23:34:23.920Z,2.07
2019-05-06T23:37:18.071Z,1.63
2019-05-06T23:40:24.738Z,2.60
2019-05-06T23:43:32.933Z,1.60
2019-05-06T23:46:38.311Z,2.90
2019-05-06T23:49:44.396Z,4.37
2019-05-06T23:52:52.041Z,1.80
2019-05-06T23:55:57.884Z,3.57
2019-05-06T23:58:26.187Z,1.97
